sensor_id;sensor_type;location;lat;lon;timestamp;P1;durP1;ratioP1;P2;durP2;ratioP2
31836;SDS011;18401;49.344;6.240;2024-01-25T00:01:49;35.13;;;3.67;;
31836;SDS011;18401;49.344;6.240;2024-01-25T00:04:14;28.92;;;3.55;;
31836;SDS011;18401;49.344;6.240;2024-01-25T00:06:40;29.52;;;3.05;;
31836;SDS011;18401;49.344;6.240;2024-01-25T00:09:06;28.17;;;3.30;;
31836;SDS011;18401;49.344;6.240;2024-01-25T00:11:31;32.28;;;3.63;;
31836;SDS011;18401;49.344;6.240;2024-01-25T00:13:57;27.58;;;4.85;;
31836;SDS011;18401;49.344;6.240;2024-01-25T00:16:23;26.92;;;3.17;;
31836;SDS011;18401;49.344;6.240;2024-01-25T00:18:49;23.15;;;3.03;;
31836;SDS011;18401;49.344;6.240;2024-01-25T00:21:14;29.48;;;3.90;;
31836;SDS011;18401;49.344;6.240;2024-01-25T00:23:40;26.25;;;3.58;;
31836;SDS011;18401;49.344;6.240;2024-01-25T00:26:06;31.52;;;3.95;;
31836;SDS011;18401;49.344;6.240;2024-01-25T00:28:31;26.52;;;4.50;;
31836;SDS011;18401;49.344;6.240;2024-01-25T00:30:58;28.58;;;3.63;;
31836;SDS011;18401;49.344;6.240;2024-01-25T00:33:24;31.48;;;4.68;;
31836;SDS011;18401;49.344;6.240;2024-01-25T00:35:50;30.23;;;3.35;;
31836;SDS011;18401;49.344;6.240;2024-01-25T00:38:16;28.50;;;3.65;;
31836;SDS011;18401;49.344;6.240;2024-01-25T00:40:42;27.50;;;4.15;;
31836;SDS011;18401;49.344;6.240;2024-01-25T00:43:08;31.40;;;3.33;;
31836;SDS011;18401;49.344;6.240;2024-01-25T00:45:34;28.00;;;3.95;;
31836;SDS011;18401;49.344;6.240;2024-01-25T00:48:00;25.48;;;3.50;;
31836;SDS011;18401;49.344;6.240;2024-01-25T00:50:26;30.13;;;3.38;;
31836;SDS011;18401;49.344;6.240;2024-01-25T00:52:52;29.83;;;4.07;;
31836;SDS011;18401;49.344;6.240;2024-01-25T00:55:18;34.45;;;4.05;;
31836;SDS011;18401;49.344;6.240;2024-01-25T00:57:44;32.92;;;3.70;;
31836;SDS011;18401;49.344;6.240;2024-01-25T01:00:10;27.13;;;3.50;;
31836;SDS011;18401;49.344;6.240;2024-01-25T01:02:39;31.48;;;4.40;;
31836;SDS011;18401;49.344;6.240;2024-01-25T01:05:07;30.23;;;3.75;;
31836;SDS011;18401;49.344;6.240;2024-01-25T01:07:33;32.42;;;3.65;;
31836;SDS011;18401;49.344;6.240;2024-01-25T01:09:59;28.70;;;3.47;;
31836;SDS011;18401;49.344;6.240;2024-01-25T01:12:24;22.45;;;3.17;;
31836;SDS011;18401;49.344;6.240;2024-01-25T01:14:50;26.23;;;3.75;;
31836;SDS011;18401;49.344;6.240;2024-01-25T01:17:16;30.48;;;4.72;;
31836;SDS011;18401;49.344;6.240;2024-01-25T01:19:43;36.05;;;5.55;;
31836;SDS011;18401;49.344;6.240;2024-01-25T01:22:10;30.95;;;3.95;;
31836;SDS011;18401;49.344;6.240;2024-01-25T01:24:36;32.38;;;3.80;;
31836;SDS011;18401;49.344;6.240;2024-01-25T01:27:01;27.67;;;4.22;;
31836;SDS011;18401;49.344;6.240;2024-01-25T01:29:27;36.47;;;4.60;;
31836;SDS011;18401;49.344;6.240;2024-01-25T01:31:53;31.27;;;3.42;;
31836;SDS011;18401;49.344;6.240;2024-01-25T01:34:18;29.17;;;3.50;;
31836;SDS011;18401;49.344;6.240;2024-01-25T01:36:44;38.28;;;3.67;;
31836;SDS011;18401;49.344;6.240;2024-01-25T01:39:10;23.50;;;3.85;;
31836;SDS011;18401;49.344;6.240;2024-01-25T01:41:36;36.40;;;4.88;;
31836;SDS011;18401;49.344;6.240;2024-01-25T01:44:01;29.08;;;3.92;;
31836;SDS011;18401;49.344;6.240;2024-01-25T01:46:34;32.13;;;4.55;;
31836;SDS011;18401;49.344;6.240;2024-01-25T01:49:05;24.42;;;3.42;;
31836;SDS011;18401;49.344;6.240;2024-01-25T01:51:32;25.20;;;3.80;;
31836;SDS011;18401;49.344;6.240;2024-01-25T01:53:59;35.80;;;3.60;;
31836;SDS011;18401;49.344;6.240;2024-01-25T01:56:27;35.80;;;4.03;;
31836;SDS011;18401;49.344;6.240;2024-01-25T01:58:57;35.67;;;4.50;;
31836;SDS011;18401;49.344;6.240;2024-01-25T02:01:24;36.45;;;3.47;;
31836;SDS011;18401;49.344;6.240;2024-01-25T02:03:50;32.53;;;3.95;;
31836;SDS011;18401;49.344;6.240;2024-01-25T02:06:17;27.17;;;3.30;;
31836;SDS011;18401;49.344;6.240;2024-01-25T02:08:43;32.53;;;3.50;;
31836;SDS011;18401;49.344;6.240;2024-01-25T02:11:11;29.48;;;3.45;;
31836;SDS011;18401;49.344;6.240;2024-01-25T02:13:37;35.63;;;4.10;;
31836;SDS011;18401;49.344;6.240;2024-01-25T02:16:03;29.25;;;3.80;;
31836;SDS011;18401;49.344;6.240;2024-01-25T02:18:29;35.10;;;3.97;;
31836;SDS011;18401;49.344;6.240;2024-01-25T02:20:55;25.10;;;3.80;;
31836;SDS011;18401;49.344;6.240;2024-01-25T02:23:21;37.67;;;4.00;;
31836;SDS011;18401;49.344;6.240;2024-01-25T02:25:47;31.02;;;4.68;;
31836;SDS011;18401;49.344;6.240;2024-01-25T02:28:13;26.67;;;3.75;;
31836;SDS011;18401;49.344;6.240;2024-01-25T02:30:39;26.25;;;4.25;;
31836;SDS011;18401;49.344;6.240;2024-01-25T02:33:05;31.40;;;4.13;;
31836;SDS011;18401;49.344;6.240;2024-01-25T02:35:31;31.10;;;4.10;;
31836;SDS011;18401;49.344;6.240;2024-01-25T02:37:57;17.95;;;3.10;;
31836;SDS011;18401;49.344;6.240;2024-01-25T02:40:23;27.63;;;3.83;;
31836;SDS011;18401;49.344;6.240;2024-01-25T02:42:48;21.90;;;3.67;;
31836;SDS011;18401;49.344;6.240;2024-01-25T02:45:14;36.25;;;4.53;;
31836;SDS011;18401;49.344;6.240;2024-01-25T02:47:40;22.77;;;3.63;;
31836;SDS011;18401;49.344;6.240;2024-01-25T02:50:05;34.05;;;3.95;;
31836;SDS011;18401;49.344;6.240;2024-01-25T02:52:31;26.92;;;4.00;;
31836;SDS011;18401;49.344;6.240;2024-01-25T02:54:57;33.47;;;3.63;;
31836;SDS011;18401;49.344;6.240;2024-01-25T02:57:23;25.42;;;4.13;;
31836;SDS011;18401;49.344;6.240;2024-01-25T02:59:48;31.33;;;3.42;;
31836;SDS011;18401;49.344;6.240;2024-01-25T03:02:14;27.30;;;3.53;;
31836;SDS011;18401;49.344;6.240;2024-01-25T03:04:41;28.33;;;3.75;;
31836;SDS011;18401;49.344;6.240;2024-01-25T03:07:07;28.40;;;3.72;;
31836;SDS011;18401;49.344;6.240;2024-01-25T03:09:33;34.63;;;4.72;;
31836;SDS011;18401;49.344;6.240;2024-01-25T03:11:58;26.92;;;3.85;;
31836;SDS011;18401;49.344;6.240;2024-01-25T03:14:24;35.72;;;4.20;;
31836;SDS011;18401;49.344;6.240;2024-01-25T03:16:49;32.45;;;3.97;;
31836;SDS011;18401;49.344;6.240;2024-01-25T03:19:15;39.05;;;5.35;;
31836;SDS011;18401;49.344;6.240;2024-01-25T03:21:41;36.63;;;3.55;;
31836;SDS011;18401;49.344;6.240;2024-01-25T03:24:06;28.45;;;4.40;;
31836;SDS011;18401;49.344;6.240;2024-01-25T03:26:32;31.27;;;3.92;;
31836;SDS011;18401;49.344;6.240;2024-01-25T03:28:58;27.27;;;5.10;;
31836;SDS011;18401;49.344;6.240;2024-01-25T03:31:23;31.05;;;4.20;;
31836;SDS011;18401;49.344;6.240;2024-01-25T03:33:49;26.42;;;4.38;;
31836;SDS011;18401;49.344;6.240;2024-01-25T03:36:14;35.25;;;3.80;;
31836;SDS011;18401;49.344;6.240;2024-01-25T03:38:40;33.05;;;3.92;;
31836;SDS011;18401;49.344;6.240;2024-01-25T03:41:06;27.67;;;4.38;;
31836;SDS011;18401;49.344;6.240;2024-01-25T03:43:34;23.95;;;3.78;;
31836;SDS011;18401;49.344;6.240;2024-01-25T03:46:00;26.45;;;3.85;;
31836;SDS011;18401;49.344;6.240;2024-01-25T03:48:26;30.30;;;4.18;;
31836;SDS011;18401;49.344;6.240;2024-01-25T03:50:51;36.97;;;4.45;;
31836;SDS011;18401;49.344;6.240;2024-01-25T03:53:21;36.53;;;4.45;;
31836;SDS011;18401;49.344;6.240;2024-01-25T03:55:47;27.20;;;3.58;;
31836;SDS011;18401;49.344;6.240;2024-01-25T03:58:19;36.58;;;4.20;;
31836;SDS011;18401;49.344;6.240;2024-01-25T04:00:44;30.00;;;4.15;;
31836;SDS011;18401;49.344;6.240;2024-01-25T04:03:10;38.53;;;5.82;;
31836;SDS011;18401;49.344;6.240;2024-01-25T04:05:37;33.45;;;4.25;;
31836;SDS011;18401;49.344;6.240;2024-01-25T04:08:04;42.72;;;4.35;;
31836;SDS011;18401;49.344;6.240;2024-01-25T04:10:30;39.28;;;5.40;;
31836;SDS011;18401;49.344;6.240;2024-01-25T04:12:56;35.00;;;4.13;;
31836;SDS011;18401;49.344;6.240;2024-01-25T04:15:22;33.20;;;4.57;;
31836;SDS011;18401;49.344;6.240;2024-01-25T04:17:47;25.90;;;3.75;;
31836;SDS011;18401;49.344;6.240;2024-01-25T04:20:14;33.80;;;4.38;;
31836;SDS011;18401;49.344;6.240;2024-01-25T04:22:40;38.08;;;4.55;;
31836;SDS011;18401;49.344;6.240;2024-01-25T04:25:05;33.13;;;4.38;;
31836;SDS011;18401;49.344;6.240;2024-01-25T04:27:31;38.53;;;3.90;;
31836;SDS011;18401;49.344;6.240;2024-01-25T04:29:57;34.92;;;3.85;;
31836;SDS011;18401;49.344;6.240;2024-01-25T04:32:23;33.95;;;4.15;;
31836;SDS011;18401;49.344;6.240;2024-01-25T04:34:48;36.92;;;4.57;;
31836;SDS011;18401;49.344;6.240;2024-01-25T04:37:14;36.88;;;4.95;;
31836;SDS011;18401;49.344;6.240;2024-01-25T04:39:40;42.20;;;4.35;;
31836;SDS011;18401;49.344;6.240;2024-01-25T04:42:06;32.53;;;5.25;;
31836;SDS011;18401;49.344;6.240;2024-01-25T04:44:32;26.90;;;4.28;;
31836;SDS011;18401;49.344;6.240;2024-01-25T04:46:58;41.80;;;4.90;;
31836;SDS011;18401;49.344;6.240;2024-01-25T04:49:24;47.63;;;5.63;;
31836;SDS011;18401;49.344;6.240;2024-01-25T04:51:50;42.72;;;5.40;;
31836;SDS011;18401;49.344;6.240;2024-01-25T04:54:16;35.72;;;4.80;;
31836;SDS011;18401;49.344;6.240;2024-01-25T04:56:42;35.38;;;4.70;;
31836;SDS011;18401;49.344;6.240;2024-01-25T04:59:08;43.60;;;4.47;;
31836;SDS011;18401;49.344;6.240;2024-01-25T05:01:34;29.77;;;4.22;;
31836;SDS011;18401;49.344;6.240;2024-01-25T05:03:59;35.03;;;3.95;;
31836;SDS011;18401;49.344;6.240;2024-01-25T05:06:25;40.83;;;3.88;;
31836;SDS011;18401;49.344;6.240;2024-01-25T05:08:51;25.45;;;4.43;;
31836;SDS011;18401;49.344;6.240;2024-01-25T05:11:17;27.95;;;3.55;;
31836;SDS011;18401;49.344;6.240;2024-01-25T05:13:42;21.92;;;3.55;;
31836;SDS011;18401;49.344;6.240;2024-01-25T05:16:08;37.03;;;4.55;;
31836;SDS011;18401;49.344;6.240;2024-01-25T05:18:34;35.28;;;4.13;;
31836;SDS011;18401;49.344;6.240;2024-01-25T05:21:00;34.88;;;3.78;;
31836;SDS011;18401;49.344;6.240;2024-01-25T05:23:25;32.20;;;3.97;;
31836;SDS011;18401;49.344;6.240;2024-01-25T05:25:51;34.78;;;4.32;;
31836;SDS011;18401;49.344;6.240;2024-01-25T05:28:18;33.95;;;4.25;;
31836;SDS011;18401;49.344;6.240;2024-01-25T05:30:43;32.88;;;4.50;;
31836;SDS011;18401;49.344;6.240;2024-01-25T05:33:09;17.95;;;2.88;;
31836;SDS011;18401;49.344;6.240;2024-01-25T05:35:35;23.05;;;3.28;;
31836;SDS011;18401;49.344;6.240;2024-01-25T05:38:01;14.35;;;2.92;;
31836;SDS011;18401;49.344;6.240;2024-01-25T05:40:27;18.05;;;3.45;;
31836;SDS011;18401;49.344;6.240;2024-01-25T05:42:52;23.42;;;3.63;;
31836;SDS011;18401;49.344;6.240;2024-01-25T05:45:18;32.90;;;3.55;;
31836;SDS011;18401;49.344;6.240;2024-01-25T05:47:45;26.40;;;4.13;;
31836;SDS011;18401;49.344;6.240;2024-01-25T05:50:11;35.30;;;3.40;;
31836;SDS011;18401;49.344;6.240;2024-01-25T05:52:37;15.15;;;2.17;;
31836;SDS011;18401;49.344;6.240;2024-01-25T05:55:03;34.80;;;8.07;;
31836;SDS011;18401;49.344;6.240;2024-01-25T05:57:34;17.63;;;2.90;;
31836;SDS011;18401;49.344;6.240;2024-01-25T06:00:01;16.45;;;3.15;;
31836;SDS011;18401;49.344;6.240;2024-01-25T06:02:30;20.38;;;2.88;;
31836;SDS011;18401;49.344;6.240;2024-01-25T06:04:56;33.90;;;4.38;;
31836;SDS011;18401;49.344;6.240;2024-01-25T06:07:24;26.13;;;4.70;;
31836;SDS011;18401;49.344;6.240;2024-01-25T06:09:50;28.33;;;4.13;;
31836;SDS011;18401;49.344;6.240;2024-01-25T06:12:16;27.60;;;2.88;;
31836;SDS011;18401;49.344;6.240;2024-01-25T06:14:41;28.10;;;4.28;;
31836;SDS011;18401;49.344;6.240;2024-01-25T06:17:07;36.13;;;5.38;;
31836;SDS011;18401;49.344;6.240;2024-01-25T06:19:33;13.20;;;2.42;;
31836;SDS011;18401;49.344;6.240;2024-01-25T06:21:59;20.13;;;3.25;;
31836;SDS011;18401;49.344;6.240;2024-01-25T06:24:25;32.95;;;6.10;;
31836;SDS011;18401;49.344;6.240;2024-01-25T06:26:52;41.95;;;7.60;;
31836;SDS011;18401;49.344;6.240;2024-01-25T06:29:18;44.63;;;6.03;;
31836;SDS011;18401;49.344;6.240;2024-01-25T06:31:44;40.53;;;5.32;;
31836;SDS011;18401;49.344;6.240;2024-01-25T06:34:10;19.52;;;4.05;;
31836;SDS011;18401;49.344;6.240;2024-01-25T06:36:36;29.92;;;4.50;;
31836;SDS011;18401;49.344;6.240;2024-01-25T06:39:02;49.30;;;6.60;;
31836;SDS011;18401;49.344;6.240;2024-01-25T06:41:31;31.15;;;4.53;;
31836;SDS011;18401;49.344;6.240;2024-01-25T06:43:57;37.45;;;5.30;;
31836;SDS011;18401;49.344;6.240;2024-01-25T06:46:23;36.80;;;7.05;;
31836;SDS011;18401;49.344;6.240;2024-01-25T06:48:50;57.78;;;7.45;;
31836;SDS011;18401;49.344;6.240;2024-01-25T06:51:16;64.43;;;7.90;;
31836;SDS011;18401;49.344;6.240;2024-01-25T06:53:42;32.33;;;4.88;;
31836;SDS011;18401;49.344;6.240;2024-01-25T06:56:08;65.55;;;7.45;;
31836;SDS011;18401;49.344;6.240;2024-01-25T06:58:33;43.58;;;5.88;;
31836;SDS011;18401;49.344;6.240;2024-01-25T07:00:59;49.88;;;7.00;;
31836;SDS011;18401;49.344;6.240;2024-01-25T07:03:24;58.28;;;7.57;;
31836;SDS011;18401;49.344;6.240;2024-01-25T07:05:50;53.58;;;6.85;;
31836;SDS011;18401;49.344;6.240;2024-01-25T07:08:16;46.28;;;6.38;;
31836;SDS011;18401;49.344;6.240;2024-01-25T07:10:42;46.42;;;5.93;;
31836;SDS011;18401;49.344;6.240;2024-01-25T07:13:07;45.03;;;5.30;;
31836;SDS011;18401;49.344;6.240;2024-01-25T07:15:33;23.38;;;4.13;;
31836;SDS011;18401;49.344;6.240;2024-01-25T07:17:59;34.70;;;4.63;;
31836;SDS011;18401;49.344;6.240;2024-01-25T07:20:25;50.08;;;5.75;;
31836;SDS011;18401;49.344;6.240;2024-01-25T07:22:50;44.83;;;5.40;;
31836;SDS011;18401;49.344;6.240;2024-01-25T07:25:16;40.80;;;5.38;;
31836;SDS011;18401;49.344;6.240;2024-01-25T07:27:45;46.05;;;6.00;;
31836;SDS011;18401;49.344;6.240;2024-01-25T07:30:11;52.05;;;6.72;;
31836;SDS011;18401;49.344;6.240;2024-01-25T07:32:38;28.88;;;4.97;;
31836;SDS011;18401;49.344;6.240;2024-01-25T07:35:06;35.33;;;4.97;;
31836;SDS011;18401;49.344;6.240;2024-01-25T07:37:32;24.73;;;4.93;;
31836;SDS011;18401;49.344;6.240;2024-01-25T07:39:58;31.67;;;4.97;;
31836;SDS011;18401;49.344;6.240;2024-01-25T07:42:24;40.45;;;6.25;;
31836;SDS011;18401;49.344;6.240;2024-01-25T07:44:50;33.58;;;5.55;;
31836;SDS011;18401;49.344;6.240;2024-01-25T07:47:15;45.42;;;6.50;;
31836;SDS011;18401;49.344;6.240;2024-01-25T07:49:41;63.83;;;8.93;;
31836;SDS011;18401;49.344;6.240;2024-01-25T07:52:07;35.92;;;7.95;;
31836;SDS011;18401;49.344;6.240;2024-01-25T07:54:32;31.67;;;8.27;;
31836;SDS011;18401;49.344;6.240;2024-01-25T07:56:58;56.35;;;8.15;;
31836;SDS011;18401;49.344;6.240;2024-01-25T07:59:24;44.78;;;7.53;;
31836;SDS011;18401;49.344;6.240;2024-01-25T08:01:49;46.10;;;7.30;;
31836;SDS011;18401;49.344;6.240;2024-01-25T08:04:15;37.40;;;7.13;;
31836;SDS011;18401;49.344;6.240;2024-01-25T08:06:41;47.38;;;7.05;;
31836;SDS011;18401;49.344;6.240;2024-01-25T08:09:06;57.70;;;8.35;;
31836;SDS011;18401;49.344;6.240;2024-01-25T08:11:33;58.88;;;7.72;;
31836;SDS011;18401;49.344;6.240;2024-01-25T08:13:59;54.03;;;9.38;;
31836;SDS011;18401;49.344;6.240;2024-01-25T08:16:25;40.65;;;7.70;;
31836;SDS011;18401;49.344;6.240;2024-01-25T08:18:51;50.78;;;8.18;;
31836;SDS011;18401;49.344;6.240;2024-01-25T08:21:17;35.67;;;7.80;;
31836;SDS011;18401;49.344;6.240;2024-01-25T08:23:42;37.97;;;8.07;;
31836;SDS011;18401;49.344;6.240;2024-01-25T08:26:08;32.65;;;6.75;;
31836;SDS011;18401;49.344;6.240;2024-01-25T08:28:35;41.70;;;7.28;;
31836;SDS011;18401;49.344;6.240;2024-01-25T08:31:03;31.83;;;6.15;;
31836;SDS011;18401;49.344;6.240;2024-01-25T08:33:30;36.97;;;5.13;;
31836;SDS011;18401;49.344;6.240;2024-01-25T08:35:55;42.50;;;7.75;;
31836;SDS011;18401;49.344;6.240;2024-01-25T08:38:21;51.58;;;7.72;;
31836;SDS011;18401;49.344;6.240;2024-01-25T08:40:47;53.75;;;10.60;;
31836;SDS011;18401;49.344;6.240;2024-01-25T08:43:12;53.85;;;9.98;;
31836;SDS011;18401;49.344;6.240;2024-01-25T08:45:38;54.05;;;8.23;;
31836;SDS011;18401;49.344;6.240;2024-01-25T08:48:04;43.05;;;7.68;;
31836;SDS011;18401;49.344;6.240;2024-01-25T08:50:30;37.15;;;7.53;;
31836;SDS011;18401;49.344;6.240;2024-01-25T08:52:56;34.95;;;7.57;;
31836;SDS011;18401;49.344;6.240;2024-01-25T08:55:21;40.63;;;7.03;;
31836;SDS011;18401;49.344;6.240;2024-01-25T08:57:48;34.67;;;6.63;;
31836;SDS011;18401;49.344;6.240;2024-01-25T09:00:14;37.22;;;5.95;;
31836;SDS011;18401;49.344;6.240;2024-01-25T09:02:40;25.00;;;5.40;;
31836;SDS011;18401;49.344;6.240;2024-01-25T09:05:07;31.00;;;3.97;;
31836;SDS011;18401;49.344;6.240;2024-01-25T09:07:33;18.20;;;3.42;;
31836;SDS011;18401;49.344;6.240;2024-01-25T09:09:59;31.75;;;4.38;;
31836;SDS011;18401;49.344;6.240;2024-01-25T09:12:25;31.65;;;3.92;;
31836;SDS011;18401;49.344;6.240;2024-01-25T09:14:51;31.75;;;4.82;;
31836;SDS011;18401;49.344;6.240;2024-01-25T09:17:17;24.65;;;3.55;;
31836;SDS011;18401;49.344;6.240;2024-01-25T09:19:49;41.63;;;5.03;;
31836;SDS011;18401;49.344;6.240;2024-01-25T09:22:16;22.90;;;4.07;;
31836;SDS011;18401;49.344;6.240;2024-01-25T09:24:44;26.67;;;4.65;;
31836;SDS011;18401;49.344;6.240;2024-01-25T09:27:10;25.90;;;3.60;;
31836;SDS011;18401;49.344;6.240;2024-01-25T09:29:35;29.42;;;3.65;;
31836;SDS011;18401;49.344;6.240;2024-01-25T09:32:03;34.03;;;3.90;;
31836;SDS011;18401;49.344;6.240;2024-01-25T09:34:29;18.67;;;3.05;;
31836;SDS011;18401;49.344;6.240;2024-01-25T09:36:55;29.30;;;3.63;;
31836;SDS011;18401;49.344;6.240;2024-01-25T09:39:20;22.17;;;3.70;;
31836;SDS011;18401;49.344;6.240;2024-01-25T09:41:46;22.73;;;3.92;;
31836;SDS011;18401;49.344;6.240;2024-01-25T09:44:12;23.77;;;3.80;;
31836;SDS011;18401;49.344;6.240;2024-01-25T09:46:38;19.33;;;3.42;;
31836;SDS011;18401;49.344;6.240;2024-01-25T09:49:06;26.60;;;3.88;;
31836;SDS011;18401;49.344;6.240;2024-01-25T09:51:36;25.05;;;5.15;;
31836;SDS011;18401;49.344;6.240;2024-01-25T09:54:03;27.70;;;3.92;;
31836;SDS011;18401;49.344;6.240;2024-01-25T09:56:31;26.00;;;3.75;;
31836;SDS011;18401;49.344;6.240;2024-01-25T09:58:57;30.52;;;3.72;;
31836;SDS011;18401;49.344;6.240;2024-01-25T10:01:24;16.88;;;3.00;;
31836;SDS011;18401;49.344;6.240;2024-01-25T10:03:50;20.15;;;3.30;;
31836;SDS011;18401;49.344;6.240;2024-01-25T10:06:15;20.65;;;2.78;;
31836;SDS011;18401;49.344;6.240;2024-01-25T10:08:42;19.17;;;3.38;;
31836;SDS011;18401;49.344;6.240;2024-01-25T10:11:08;20.70;;;3.10;;
31836;SDS011;18401;49.344;6.240;2024-01-25T10:13:42;14.98;;;3.50;;
31836;SDS011;18401;49.344;6.240;2024-01-25T10:16:12;17.42;;;3.58;;
31836;SDS011;18401;49.344;6.240;2024-01-25T10:18:39;20.63;;;3.25;;
31836;SDS011;18401;49.344;6.240;2024-01-25T10:21:06;19.90;;;2.50;;
31836;SDS011;18401;49.344;6.240;2024-01-25T10:23:32;25.45;;;4.43;;
31836;SDS011;18401;49.344;6.240;2024-01-25T10:25:57;23.00;;;3.25;;
31836;SDS011;18401;49.344;6.240;2024-01-25T10:28:23;21.45;;;3.88;;
31836;SDS011;18401;49.344;6.240;2024-01-25T10:30:50;23.98;;;2.60;;
31836;SDS011;18401;49.344;6.240;2024-01-25T10:33:16;20.88;;;2.75;;
31836;SDS011;18401;49.344;6.240;2024-01-25T10:35:42;19.27;;;2.30;;
31836;SDS011;18401;49.344;6.240;2024-01-25T10:38:15;13.70;;;3.22;;
31836;SDS011;18401;49.344;6.240;2024-01-25T10:40:42;24.73;;;3.40;;
31836;SDS011;18401;49.344;6.240;2024-01-25T10:43:09;21.88;;;3.35;;
31836;SDS011;18401;49.344;6.240;2024-01-25T10:45:35;20.58;;;2.88;;
31836;SDS011;18401;49.344;6.240;2024-01-25T10:48:02;26.27;;;4.00;;
31836;SDS011;18401;49.344;6.240;2024-01-25T10:50:28;27.60;;;2.88;;
31836;SDS011;18401;49.344;6.240;2024-01-25T10:52:53;24.60;;;3.15;;
31836;SDS011;18401;49.344;6.240;2024-01-25T10:55:20;22.35;;;3.13;;
31836;SDS011;18401;49.344;6.240;2024-01-25T10:57:46;16.75;;;2.58;;
31836;SDS011;18401;49.344;6.240;2024-01-25T11:00:13;23.45;;;3.20;;
31836;SDS011;18401;49.344;6.240;2024-01-25T11:02:40;20.23;;;3.55;;
31836;SDS011;18401;49.344;6.240;2024-01-25T11:05:13;20.58;;;3.13;;
31836;SDS011;18401;49.344;6.240;2024-01-25T11:07:47;13.73;;;2.42;;
31836;SDS011;18401;49.344;6.240;2024-01-25T11:10:14;14.82;;;3.22;;
31836;SDS011;18401;49.344;6.240;2024-01-25T11:12:57;24.10;;;2.78;;
31836;SDS011;18401;49.344;6.240;2024-01-25T11:17:58;18.73;;;3.17;;
31836;SDS011;18401;49.344;6.240;2024-01-25T11:20:25;21.42;;;2.65;;
31836;SDS011;18401;49.344;6.240;2024-01-25T11:22:58;19.95;;;3.78;;
31836;SDS011;18401;49.344;6.240;2024-01-25T11:25:29;20.80;;;2.67;;
31836;SDS011;18401;49.344;6.240;2024-01-25T11:27:57;32.97;;;4.05;;
31836;SDS011;18401;49.344;6.240;2024-01-25T11:30:23;22.00;;;3.00;;
31836;SDS011;18401;49.344;6.240;2024-01-25T11:32:50;24.90;;;3.15;;
31836;SDS011;18401;49.344;6.240;2024-01-25T11:35:16;28.20;;;4.05;;
31836;SDS011;18401;49.344;6.240;2024-01-25T11:37:45;28.15;;;3.00;;
31836;SDS011;18401;49.344;6.240;2024-01-25T11:40:13;22.15;;;3.80;;
31836;SDS011;18401;49.344;6.240;2024-01-25T11:42:39;19.77;;;3.20;;
31836;SDS011;18401;49.344;6.240;2024-01-25T11:45:07;17.50;;;3.00;;
31836;SDS011;18401;49.344;6.240;2024-01-25T11:47:35;23.25;;;4.03;;
31836;SDS011;18401;49.344;6.240;2024-01-25T11:50:01;21.63;;;3.47;;
31836;SDS011;18401;49.344;6.240;2024-01-25T11:52:27;22.48;;;3.25;;
31836;SDS011;18401;49.344;6.240;2024-01-25T11:54:53;28.88;;;3.50;;
31836;SDS011;18401;49.344;6.240;2024-01-25T11:57:18;24.45;;;3.60;;
31836;SDS011;18401;49.344;6.240;2024-01-25T11:59:45;17.52;;;3.58;;
31836;SDS011;18401;49.344;6.240;2024-01-25T12:02:12;21.23;;;3.63;;
31836;SDS011;18401;49.344;6.240;2024-01-25T12:04:39;21.13;;;3.30;;
31836;SDS011;18401;49.344;6.240;2024-01-25T12:07:05;21.63;;;3.08;;
31836;SDS011;18401;49.344;6.240;2024-01-25T12:09:31;15.15;;;3.28;;
31836;SDS011;18401;49.344;6.240;2024-01-25T12:11:57;24.90;;;3.03;;
31836;SDS011;18401;49.344;6.240;2024-01-25T12:14:25;17.33;;;2.47;;
31836;SDS011;18401;49.344;6.240;2024-01-25T12:16:55;16.08;;;3.03;;
31836;SDS011;18401;49.344;6.240;2024-01-25T12:19:21;17.65;;;3.00;;
31836;SDS011;18401;49.344;6.240;2024-01-25T12:21:46;22.95;;;3.35;;
31836;SDS011;18401;49.344;6.240;2024-01-25T12:24:12;14.70;;;2.38;;
31836;SDS011;18401;49.344;6.240;2024-01-25T12:26:38;13.52;;;3.03;;
31836;SDS011;18401;49.344;6.240;2024-01-25T12:29:04;19.05;;;2.78;;
31836;SDS011;18401;49.344;6.240;2024-01-25T12:31:30;10.80;;;3.10;;
31836;SDS011;18401;49.344;6.240;2024-01-25T12:33:56;14.70;;;2.88;;
31836;SDS011;18401;49.344;6.240;2024-01-25T12:36:23;20.40;;;3.28;;
31836;SDS011;18401;49.344;6.240;2024-01-25T12:38:48;10.75;;;2.58;;
31836;SDS011;18401;49.344;6.240;2024-01-25T12:41:14;16.83;;;3.28;;
31836;SDS011;18401;49.344;6.240;2024-01-25T12:43:40;14.45;;;2.20;;
31836;SDS011;18401;49.344;6.240;2024-01-25T12:46:06;23.50;;;2.92;;
31836;SDS011;18401;49.344;6.240;2024-01-25T12:48:32;16.67;;;2.92;;
31836;SDS011;18401;49.344;6.240;2024-01-25T12:50:57;18.33;;;3.03;;
31836;SDS011;18401;49.344;6.240;2024-01-25T12:53:23;21.40;;;2.90;;
31836;SDS011;18401;49.344;6.240;2024-01-25T12:55:49;22.15;;;4.30;;
31836;SDS011;18401;49.344;6.240;2024-01-25T12:58:14;13.55;;;3.53;;
31836;SDS011;18401;49.344;6.240;2024-01-25T13:00:40;10.70;;;2.83;;
31836;SDS011;18401;49.344;6.240;2024-01-25T13:03:06;22.33;;;3.55;;
31836;SDS011;18401;49.344;6.240;2024-01-25T13:05:32;20.55;;;2.88;;
31836;SDS011;18401;49.344;6.240;2024-01-25T13:08:02;25.25;;;4.22;;
31836;SDS011;18401;49.344;6.240;2024-01-25T13:10:28;19.13;;;3.35;;
31836;SDS011;18401;49.344;6.240;2024-01-25T13:12:54;17.52;;;2.70;;
31836;SDS011;18401;49.344;6.240;2024-01-25T13:15:20;21.73;;;3.75;;
31836;SDS011;18401;49.344;6.240;2024-01-25T13:17:45;18.70;;;3.10;;
31836;SDS011;18401;49.344;6.240;2024-01-25T13:20:11;32.03;;;3.58;;
31836;SDS011;18401;49.344;6.240;2024-01-25T13:22:37;23.92;;;2.72;;
31836;SDS011;18401;49.344;6.240;2024-01-25T13:25:02;19.77;;;3.05;;
31836;SDS011;18401;49.344;6.240;2024-01-25T13:27:29;16.35;;;2.72;;
31836;SDS011;18401;49.344;6.240;2024-01-25T13:29:54;13.05;;;2.53;;
31836;SDS011;18401;49.344;6.240;2024-01-25T13:32:21;22.25;;;2.97;;
31836;SDS011;18401;49.344;6.240;2024-01-25T13:34:47;19.83;;;2.53;;
31836;SDS011;18401;49.344;6.240;2024-01-25T13:37:13;16.15;;;3.40;;
31836;SDS011;18401;49.344;6.240;2024-01-25T13:39:39;16.65;;;3.15;;
31836;SDS011;18401;49.344;6.240;2024-01-25T13:42:06;19.65;;;2.80;;
31836;SDS011;18401;49.344;6.240;2024-01-25T13:44:31;14.77;;;2.65;;
31836;SDS011;18401;49.344;6.240;2024-01-25T13:46:57;17.67;;;2.80;;
31836;SDS011;18401;49.344;6.240;2024-01-25T13:49:24;13.38;;;2.67;;
31836;SDS011;18401;49.344;6.240;2024-01-25T13:51:49;14.90;;;2.65;;
31836;SDS011;18401;49.344;6.240;2024-01-25T13:54:15;16.23;;;2.75;;
31836;SDS011;18401;49.344;6.240;2024-01-25T13:56:41;24.05;;;2.95;;
31836;SDS011;18401;49.344;6.240;2024-01-25T13:59:06;13.02;;;2.92;;
31836;SDS011;18401;49.344;6.240;2024-01-25T14:01:32;6.47;;;2.70;;
31836;SDS011;18401;49.344;6.240;2024-01-25T14:03:58;13.63;;;2.90;;
31836;SDS011;18401;49.344;6.240;2024-01-25T14:06:23;17.70;;;3.90;;
31836;SDS011;18401;49.344;6.240;2024-01-25T14:08:49;19.17;;;4.18;;
31836;SDS011;18401;49.344;6.240;2024-01-25T14:11:15;11.43;;;4.03;;
31836;SDS011;18401;49.344;6.240;2024-01-25T14:13:42;17.33;;;4.10;;
31836;SDS011;18401;49.344;6.240;2024-01-25T14:16:08;13.73;;;4.13;;
31836;SDS011;18401;49.344;6.240;2024-01-25T14:18:38;19.10;;;4.88;;
31836;SDS011;18401;49.344;6.240;2024-01-25T14:21:04;8.43;;;3.92;;
31836;SDS011;18401;49.344;6.240;2024-01-25T14:23:30;12.57;;;4.35;;
31836;SDS011;18401;49.344;6.240;2024-01-25T14:25:56;15.35;;;4.47;;
31836;SDS011;18401;49.344;6.240;2024-01-25T14:28:22;14.55;;;4.80;;
31836;SDS011;18401;49.344;6.240;2024-01-25T14:30:48;19.05;;;4.55;;